sensor_id;sensor_type;location;lat;lon;timestamp;pressure;altitude;pressure_sealevel;temperature;humidity
80976;BME280;70437;49.466;11.002;2024-02-28T00:01:05;98128.59;;;5.81;100.00
80976;BME280;70437;49.466;11.002;2024-02-28T00:03:34;98144.84;;;5.65;100.00
80976;BME280;70437;49.466;11.002;2024-02-28T00:06:05;98139.03;;;5.55;100.00
80976;BME280;70437;49.466;11.002;2024-02-28T00:08:36;98131.91;;;5.62;100.00
80976;BME280;70437;49.466;11.002;2024-02-28T00:11:05;98138.59;;;5.51;100.00
80976;BME280;70437;49.466;11.002;2024-02-28T00:13:35;98127.16;;;5.79;100.00
80976;BME280;70437;49.466;11.002;2024-02-28T00:16:07;98140.38;;;5.94;100.00
80976;BME280;70437;49.466;11.002;2024-02-28T00:18:35;98143.06;;;5.72;100.00
80976;BME280;70437;49.466;11.002;2024-02-28T00:21:07;98139.78;;;5.49;100.00
80976;BME280;70437;49.466;11.002;2024-02-28T00:23:40;98135.22;;;5.64;100.00
80976;BME280;70437;49.466;11.002;2024-02-28T00:26:12;98137.31;;;5.69;100.00
80976;BME280;70437;49.466;11.002;2024-02-28T00:28:42;98139.50;;;5.65;100.00
80976;BME280;70437;49.466;11.002;2024-02-28T00:31:13;98133.75;;;5.62;100.00
80976;BME280;70437;49.466;11.002;2024-02-28T00:33:43;98133.47;;;5.50;100.00
80976;BME280;70437;49.466;11.002;2024-02-28T00:36:18;98138.13;;;5.48;100.00
80976;BME280;70437;49.466;11.002;2024-02-28T00:38:48;98137.13;;;5.49;100.00
80976;BME280;70437;49.466;11.002;2024-02-28T00:41:18;98135.09;;;5.72;100.00
80976;BME280;70437;49.466;11.002;2024-02-28T00:43:48;98141.09;;;5.60;100.00
80976;BME280;70437;49.466;11.002;2024-02-28T00:46:21;98137.03;;;5.85;100.00
80976;BME280;70437;49.466;11.002;2024-02-28T00:49:31;98132.59;;;5.92;100.00
80976;BME280;70437;49.466;11.002;2024-02-28T00:52:04;98137.09;;;5.92;100.00
80976;BME280;70437;49.466;11.002;2024-02-28T00:54:36;98142.84;;;5.95;100.00
80976;BME280;70437;49.466;11.002;2024-02-28T00:57:07;98138.16;;;5.97;100.00
80976;BME280;70437;49.466;11.002;2024-02-28T00:59:37;98131.00;;;5.98;100.00
80976;BME280;70437;49.466;11.002;2024-02-28T01:02:08;98131.88;;;6.05;100.00
80976;BME280;70437;49.466;11.002;2024-02-28T01:04:37;98139.09;;;5.90;100.00
80976;BME280;70437;49.466;11.002;2024-02-28T01:07:11;98141.56;;;5.91;100.00
80976;BME280;70437;49.466;11.002;2024-02-28T01:09:41;98140.06;;;6.03;100.00
80976;BME280;70437;49.466;11.002;2024-02-28T01:12:10;98128.31;;;5.98;100.00
80976;BME280;70437;49.466;11.002;2024-02-28T01:14:44;98133.84;;;5.96;100.00
80976;BME280;70437;49.466;11.002;2024-02-28T01:17:15;98135.31;;;5.99;100.00
80976;BME280;70437;49.466;11.002;2024-02-28T01:19:45;98140.81;;;5.97;100.00
80976;BME280;70437;49.466;11.002;2024-02-28T01:22:18;98149.91;;;6.10;100.00
80976;BME280;70437;49.466;11.002;2024-02-28T01:24:48;98138.97;;;5.98;100.00
80976;BME280;70437;49.466;11.002;2024-02-28T01:27:17;98142.28;;;6.00;100.00
80976;BME280;70437;49.466;11.002;2024-02-28T01:29:48;98134.59;;;5.90;100.00
80976;BME280;70437;49.466;11.002;2024-02-28T01:32:19;98138.72;;;5.93;100.00
80976;BME280;70437;49.466;11.002;2024-02-28T01:34:52;98138.09;;;5.91;100.00
80976;BME280;70437;49.466;11.002;2024-02-28T01:37:25;98146.06;;;5.91;100.00
80976;BME280;70437;49.466;11.002;2024-02-28T01:39:56;98137.19;;;5.83;100.00
80976;BME280;70437;49.466;11.002;2024-02-28T01:42:28;98137.59;;;5.80;100.00
80976;BME280;70437;49.466;11.002;2024-02-28T01:44:59;98135.09;;;5.72;100.00
80976;BME280;70437;49.466;11.002;2024-02-28T01:47:34;98131.53;;;5.65;100.00
80976;BME280;70437;49.466;11.002;2024-02-28T01:50:10;98132.50;;;5.57;100.00
80976;BME280;70437;49.466;11.002;2024-02-28T01:52:46;98139.59;;;5.72;100.00
80976;BME280;70437;49.466;11.002;2024-02-28T01:55:20;98132.66;;;5.77;100.00
80976;BME280;70437;49.466;11.002;2024-02-28T01:57:54;98128.97;;;5.78;100.00
80976;BME280;70437;49.466;11.002;2024-02-28T02:00:27;98139.16;;;5.96;100.00
80976;BME280;70437;49.466;11.002;2024-02-28T02:03:03;98146.06;;;5.91;100.00
80976;BME280;70437;49.466;11.002;2024-02-28T02:05:32;98148.78;;;5.76;100.00
80976;BME280;70437;49.466;11.002;2024-02-28T02:08:09;98154.31;;;5.74;100.00
80976;BME280;70437;49.466;11.002;2024-02-28T02:10:38;98152.53;;;5.81;100.00
80976;BME280;70437;49.466;11.002;2024-02-28T02:13:10;98160.69;;;5.80;100.00
80976;BME280;70437;49.466;11.002;2024-02-28T02:15:40;98164.13;;;5.74;100.00
80976;BME280;70437;49.466;11.002;2024-02-28T02:18:12;98175.66;;;5.81;100.00
80976;BME280;70437;49.466;11.002;2024-02-28T02:20:46;98174.88;;;5.87;100.00
80976;BME280;70437;49.466;11.002;2024-02-28T02:23:21;98176.81;;;5.72;100.00
80976;BME280;70437;49.466;11.002;2024-02-28T02:25:52;98180.16;;;5.80;100.00
80976;BME280;70437;49.466;11.002;2024-02-28T02:28:22;98180.16;;;5.80;100.00
80976;BME280;70437;49.466;11.002;2024-02-28T02:30:53;98185.38;;;5.74;100.00
80976;BME280;70437;49.466;11.002;2024-02-28T02:33:23;98188.44;;;5.92;100.00
80976;BME280;70437;49.466;11.002;2024-02-28T02:35:53;98189.31;;;5.99;100.00
80976;BME280;70437;49.466;11.002;2024-02-28T02:38:27;98197.75;;;5.81;100.00
80976;BME280;70437;49.466;11.002;2024-02-28T02:40:57;98204.50;;;5.84;100.00
80976;BME280;70437;49.466;11.002;2024-02-28T02:43:29;98210.06;;;5.89;100.00
80976;BME280;70437;49.466;11.002;2024-02-28T02:46:01;98213.63;;;5.96;100.00
80976;BME280;70437;49.466;11.002;2024-02-28T02:48:30;98228.88;;;5.88;100.00
80976;BME280;70437;49.466;11.002;2024-02-28T02:50:59;98222.69;;;5.59;100.00
80976;BME280;70437;49.466;11.002;2024-02-28T02:53:30;98228.63;;;5.61;100.00
80976;BME280;70437;49.466;11.002;2024-02-28T02:56:00;98225.88;;;5.76;100.00
80976;BME280;70437;49.466;11.002;2024-02-28T02:58:33;98230.91;;;5.64;100.00
80976;BME280;70437;49.466;11.002;2024-02-28T03:01:03;98229.75;;;5.52;100.00
80976;BME280;70437;49.466;11.002;2024-02-28T03:03:38;98227.22;;;5.44;100.00
80976;BME280;70437;49.466;11.002;2024-02-28T03:06:09;98235.59;;;5.41;100.00
80976;BME280;70437;49.466;11.002;2024-02-28T03:08:42;98246.22;;;5.41;100.00
80976;BME280;70437;49.466;11.002;2024-02-28T03:11:14;98249.56;;;5.49;100.00
80976;BME280;70437;49.466;11.002;2024-02-28T03:13:46;98243.72;;;5.39;100.00
80976;BME280;70437;49.466;11.002;2024-02-28T03:16:18;98249.50;;;5.43;100.00
80976;BME280;70437;49.466;11.002;2024-02-28T03:18:52;98251.78;;;5.46;100.00
80976;BME280;70437;49.466;11.002;2024-02-28T03:21:23;98256.28;;;5.30;100.00
80976;BME280;70437;49.466;11.002;2024-02-28T03:23:54;98256.13;;;5.32;100.00
80976;BME280;70437;49.466;11.002;2024-02-28T03:26:25;98258.69;;;5.62;100.00
80976;BME280;70437;49.466;11.002;2024-02-28T03:28:56;98258.66;;;5.40;100.00
80976;BME280;70437;49.466;11.002;2024-02-28T03:31:27;98258.72;;;5.47;100.00
80976;BME280;70437;49.466;11.002;2024-02-28T03:34:00;98257.19;;;5.38;100.00
80976;BME280;70437;49.466;11.002;2024-02-28T03:36:29;98267.56;;;5.32;100.00
80976;BME280;70437;49.466;11.002;2024-02-28T03:39:04;98256.22;;;5.24;100.00
80976;BME280;70437;49.466;11.002;2024-02-28T03:41:34;98262.31;;;5.39;100.00
80976;BME280;70437;49.466;11.002;2024-02-28T03:44:05;98275.91;;;5.29;100.00
80976;BME280;70437;49.466;11.002;2024-02-28T03:46:37;98275.59;;;5.39;100.00
80976;BME280;70437;49.466;11.002;2024-02-28T03:49:09;98275.66;;;5.61;100.00
80976;BME280;70437;49.466;11.002;2024-02-28T03:51:41;98285.19;;;5.55;100.00
80976;BME280;70437;49.466;11.002;2024-02-28T03:54:13;98289.25;;;5.51;100.00
80976;BME280;70437;49.466;11.002;2024-02-28T03:56:43;98286.31;;;5.46;100.00
80976;BME280;70437;49.466;11.002;2024-02-28T03:59:13;98302.31;;;5.52;100.00
80976;BME280;70437;49.466;11.002;2024-02-28T04:01:46;98302.78;;;5.56;100.00
80976;BME280;70437;49.466;11.002;2024-02-28T04:04:18;98306.81;;;5.52;100.00
80976;BME280;70437;49.466;11.002;2024-02-28T04:06:50;98302.16;;;5.54;100.00
80976;BME280;70437;49.466;11.002;2024-02-28T04:09:23;98303.66;;;5.42;100.00
80976;BME280;70437;49.466;11.002;2024-02-28T04:11:58;98306.91;;;5.58;100.00
80976;BME280;70437;49.466;11.002;2024-02-28T04:14:32;98303.03;;;5.61;100.00
80976;BME280;70437;49.466;11.002;2024-02-28T04:17:04;98312.41;;;5.57;100.00
80976;BME280;70437;49.466;11.002;2024-02-28T04:19:35;98312.66;;;5.62;100.00
80976;BME280;70437;49.466;11.002;2024-02-28T04:22:07;98311.78;;;5.40;100.00
80976;BME280;70437;49.466;11.002;2024-02-28T04:24:42;98311.34;;;5.37;100.00
80976;BME280;70437;49.466;11.002;2024-02-28T04:27:12;98318.50;;;5.36;100.00
80976;BME280;70437;49.466;11.002;2024-02-28T04:29:43;98318.59;;;5.28;100.00
80976;BME280;70437;49.466;11.002;2024-02-28T04:32:14;98323.81;;;5.36;100.00
80976;BME280;70437;49.466;11.002;2024-02-28T04:34:46;98320.59;;;5.26;100.00
80976;BME280;70437;49.466;11.002;2024-02-28T04:37:18;98322.19;;;5.20;100.00
80976;BME280;70437;49.466;11.002;2024-02-28T04:39:50;98325.59;;;5.14;100.00
80976;BME280;70437;49.466;11.002;2024-02-28T04:42:20;98324.66;;;5.07;100.00
80976;BME280;70437;49.466;11.002;2024-02-28T04:44:52;98321.38;;;5.05;100.00
80976;BME280;70437;49.466;11.002;2024-02-28T04:47:21;98315.69;;;5.08;100.00
80976;BME280;70437;49.466;11.002;2024-02-28T04:50:04;98329.22;;;5.13;100.00
80976;BME280;70437;49.466;11.002;2024-02-28T04:52:42;98326.66;;;5.20;100.00
80976;BME280;70437;49.466;11.002;2024-02-28T04:55:15;98323.16;;;5.34;100.00
80976;BME280;70437;49.466;11.002;2024-02-28T04:57:44;98333.34;;;5.30;100.00
80976;BME280;70437;49.466;11.002;2024-02-28T05:00:14;98336.47;;;5.19;100.00
80976;BME280;70437;49.466;11.002;2024-02-28T05:02:45;98324.31;;;5.10;100.00
80976;BME280;70437;49.466;11.002;2024-02-28T05:05:15;98323.81;;;5.21;100.00
80976;BME280;70437;49.466;11.002;2024-02-28T05:07:45;98328.31;;;5.21;100.00
80976;BME280;70437;49.466;11.002;2024-02-28T05:10:20;98332.63;;;5.07;100.00
80976;BME280;70437;49.466;11.002;2024-02-28T05:12:50;98334.34;;;5.00;100.00
80976;BME280;70437;49.466;11.002;2024-02-28T05:15:20;98332.91;;;5.12;100.00
80976;BME280;70437;49.466;11.002;2024-02-28T05:17:52;98336.75;;;5.10;100.00
80976;BME280;70437;49.466;11.002;2024-02-28T05:20:21;98339.22;;;5.11;100.00
80976;BME280;70437;49.466;11.002;2024-02-28T05:22:50;98334.53;;;5.28;100.00
80976;BME280;70437;49.466;11.002;2024-02-28T05:25:23;98335.38;;;5.14;100.00
80976;BME280;70437;49.466;11.002;2024-02-28T05:27:58;98328.66;;;5.18;100.00
80976;BME280;70437;49.466;11.002;2024-02-28T05:30:30;98327.03;;;5.17;100.00
80976;BME280;70437;49.466;11.002;2024-02-28T05:33:00;98334.44;;;5.21;100.00
80976;BME280;70437;49.466;11.002;2024-02-28T05:35:34;98340.03;;;5.26;100.00
80976;BME280;70437;49.466;11.002;2024-02-28T05:38:06;98338.38;;;5.25;100.00
80976;BME280;70437;49.466;11.002;2024-02-28T05:40:38;98337.38;;;5.26;100.00
80976;BME280;70437;49.466;11.002;2024-02-28T05:43:09;98344.97;;;5.29;100.00
80976;BME280;70437;49.466;11.002;2024-02-28T05:45:39;98339.94;;;5.49;100.00
80976;BME280;70437;49.466;11.002;2024-02-28T05:48:10;98343.25;;;5.37;100.00
80976;BME280;70437;49.466;11.002;2024-02-28T05:50:45;98339.19;;;5.55;100.00
80976;BME280;70437;49.466;11.002;2024-02-28T05:53:16;98339.03;;;5.13;100.00
80976;BME280;70437;49.466;11.002;2024-02-28T05:55:50;98338.66;;;5.16;100.00
80976;BME280;70437;49.466;11.002;2024-02-28T05:58:25;98354.31;;;5.25;100.00
80976;BME280;70437;49.466;11.002;2024-02-28T06:00:57;98333.78;;;5.34;100.00
80976;BME280;70437;49.466;11.002;2024-02-28T06:03:29;98336.06;;;5.52;100.00
80976;BME280;70437;49.466;11.002;2024-02-28T06:06:02;98342.66;;;5.56;100.00
80976;BME280;70437;49.466;11.002;2024-02-28T06:08:34;98348.31;;;5.53;100.00
80976;BME280;70437;49.466;11.002;2024-02-28T06:11:11;98360.44;;;5.55;100.00
80976;BME280;70437;49.466;11.002;2024-02-28T06:13:43;98368.88;;;5.59;100.00
80976;BME280;70437;49.466;11.002;2024-02-28T06:16:19;98366.63;;;5.77;100.00
80976;BME280;70437;49.466;11.002;2024-02-28T06:18:53;98367.25;;;5.79;100.00
80976;BME280;70437;49.466;11.002;2024-02-28T06:21:41;98375.81;;;5.60;100.00
80976;BME280;70437;49.466;11.002;2024-02-28T06:24:13;98376.03;;;5.58;100.00
80976;BME280;70437;49.466;11.002;2024-02-28T06:26:46;98386.34;;;5.68;100.00
80976;BME280;70437;49.466;11.002;2024-02-28T06:29:18;98389.47;;;5.72;100.00
80976;BME280;70437;49.466;11.002;2024-02-28T06:31:50;98389.56;;;5.49;100.00
80976;BME280;70437;49.466;11.002;2024-02-28T06:34:23;98405.69;;;5.62;100.00
80976;BME280;70437;49.466;11.002;2024-02-28T06:36:53;98401.13;;;5.56;100.00
80976;BME280;70437;49.466;11.002;2024-02-28T06:39:24;98404.50;;;5.35;100.00
80976;BME280;70437;49.466;11.002;2024-02-28T06:41:58;98407.84;;;5.37;100.00
80976;BME280;70437;49.466;11.002;2024-02-28T06:44:30;98408.56;;;5.46;100.00
80976;BME280;70437;49.466;11.002;2024-02-28T06:46:59;98418.00;;;5.63;100.00
80976;BME280;70437;49.466;11.002;2024-02-28T06:49:31;98423.47;;;5.62;100.00
80976;BME280;70437;49.466;11.002;2024-02-28T06:52:03;98419.09;;;5.69;100.00
80976;BME280;70437;49.466;11.002;2024-02-28T06:54:34;98427.25;;;5.67;100.00
80976;BME280;70437;49.466;11.002;2024-02-28T06:57:05;98425.84;;;5.86;100.00
80976;BME280;70437;49.466;11.002;2024-02-28T06:59:35;98433.09;;;5.77;100.00
80976;BME280;70437;49.466;11.002;2024-02-28T07:02:09;98433.66;;;5.73;100.00
80976;BME280;70437;49.466;11.002;2024-02-28T07:04:38;98437.31;;;5.72;100.00
80976;BME280;70437;49.466;11.002;2024-02-28T07:07:08;98446.13;;;5.57;100.00
80976;BME280;70437;49.466;11.002;2024-02-28T07:09:40;98445.47;;;5.70;100.00
80976;BME280;70437;49.466;11.002;2024-02-28T07:12:12;98453.28;;;5.72;100.00
80976;BME280;70437;49.466;11.002;2024-02-28T07:14:43;98457.34;;;5.89;100.00
80976;BME280;70437;49.466;11.002;2024-02-28T07:17:16;98456.09;;;5.85;100.00
80976;BME280;70437;49.466;11.002;2024-02-28T07:19:52;98453.38;;;5.64;100.00
80976;BME280;70437;49.466;11.002;2024-02-28T07:22:26;98459.41;;;5.72;100.00
80976;BME280;70437;49.466;11.002;2024-02-28T07:24:55;98473.72;;;6.01;100.00
80976;BME280;70437;49.466;11.002;2024-02-28T07:27:27;98469.09;;;6.10;100.00
80976;BME280;70437;49.466;11.002;2024-02-28T07:29:57;98471.16;;;6.07;100.00
80976;BME280;70437;49.466;11.002;2024-02-28T07:32:26;98468.75;;;6.13;100.00
80976;BME280;70437;49.466;11.002;2024-02-28T07:34:56;98467.09;;;5.97;100.00
80976;BME280;70437;49.466;11.002;2024-02-28T07:37:27;98473.00;;;5.92;100.00
80976;BME280;70437;49.466;11.002;2024-02-28T07:39:57;98482.44;;;5.95;100.00
80976;BME280;70437;49.466;11.002;2024-02-28T07:42:33;98478.72;;;6.11;100.00
80976;BME280;70437;49.466;11.002;2024-02-28T07:45:05;98486.91;;;6.09;100.00
80976;BME280;70437;49.466;11.002;2024-02-28T07:47:37;98490.28;;;6.18;100.00
80976;BME280;70437;49.466;11.002;2024-02-28T07:50:08;98491.41;;;6.08;100.00
80976;BME280;70437;49.466;11.002;2024-02-28T07:52:37;98494.22;;;6.07;100.00
80976;BME280;70437;49.466;11.002;2024-02-28T07:55:07;98489.84;;;6.14;100.00
80976;BME280;70437;49.466;11.002;2024-02-28T07:57:39;98499.28;;;6.17;100.00
80976;BME280;70437;49.466;11.002;2024-02-28T08:00:16;98493.41;;;6.21;100.00
80976;BME280;70437;49.466;11.002;2024-02-28T08:02:48;98497.59;;;6.30;100.00
80976;BME280;70437;49.466;11.002;2024-02-28T08:05:20;98505.94;;;6.27;100.00
80976;BME280;70437;49.466;11.002;2024-02-28T08:07:52;98505.59;;;6.16;100.00
80976;BME280;70437;49.466;11.002;2024-02-28T08:10:24;98500.25;;;6.30;100.00
80976;BME280;70437;49.466;11.002;2024-02-28T08:12:54;98507.34;;;6.23;100.00
80976;BME280;70437;49.466;11.002;2024-02-28T08:15:24;98497.78;;;6.29;100.00
80976;BME280;70437;49.466;11.002;2024-02-28T08:17:56;98505.44;;;6.17;100.00
80976;BME280;70437;49.466;11.002;2024-02-28T08:20:28;98511.03;;;6.07;100.00
80976;BME280;70437;49.466;11.002;2024-02-28T08:22:58;98514.78;;;6.13;100.00
80976;BME280;70437;49.466;11.002;2024-02-28T08:25:28;98523.69;;;6.05;100.00
80976;BME280;70437;49.466;11.002;2024-02-28T08:28:03;98527.56;;;6.03;100.00
80976;BME280;70437;49.466;11.002;2024-02-28T08:30:40;98527.91;;;6.15;100.00
80976;BME280;70437;49.466;11.002;2024-02-28T08:33:10;98529.84;;;6.06;100.00
80976;BME280;70437;49.466;11.002;2024-02-28T08:35:42;98532.13;;;6.09;100.00
80976;BME280;70437;49.466;11.002;2024-02-28T08:38:18;98529.38;;;6.17;100.00
80976;BME280;70437;49.466;11.002;2024-02-28T08:40:53;98533.94;;;6.23;100.00
80976;BME280;70437;49.466;11.002;2024-02-28T08:43:24;98531.13;;;6.10;100.00
80976;BME280;70437;49.466;11.002;2024-02-28T08:45:53;98547.19;;;6.17;100.00
80976;BME280;70437;49.466;11.002;2024-02-28T08:48:22;98549.09;;;6.23;100.00
80976;BME280;70437;49.466;11.002;2024-02-28T08:50:51;98554.59;;;6.21;100.00
80976;BME280;70437;49.466;11.002;2024-02-28T08:53:21;98559.81;;;6.15;100.00
80976;BME280;70437;49.466;11.002;2024-02-28T08:55:54;98559.00;;;6.14;100.00
80976;BME280;70437;49.466;11.002;2024-02-28T08:58:29;98555.69;;;6.27;100.00
80976;BME280;70437;49.466;11.002;2024-02-28T09:01:00;98559.66;;;6.16;100.00
80976;BME280;70437;49.466;11.002;2024-02-28T09:03:33;98565.78;;;6.17;100.00
80976;BME280;70437;49.466;11.002;2024-02-28T09:06:04;98558.44;;;6.19;100.00
80976;BME280;70437;49.466;11.002;2024-02-28T09:08:36;98560.09;;;6.20;100.00
80976;BME280;70437;49.466;11.002;2024-02-28T09:11:05;98563.94;;;6.32;100.00
80976;BME280;70437;49.466;11.002;2024-02-28T09:13:42;98568.44;;;6.31;100.00
80976;BME280;70437;49.466;11.002;2024-02-28T09:16:12;98570.91;;;6.33;100.00
80976;BME280;70437;49.466;11.002;2024-02-28T09:18:42;98571.84;;;6.25;100.00
80976;BME280;70437;49.466;11.002;2024-02-28T09:21:12;98566.97;;;6.44;100.00
80976;BME280;70437;49.466;11.002;2024-02-28T09:23:43;98570.28;;;6.31;100.00
80976;BME280;70437;49.466;11.002;2024-02-28T09:26:16;98566.03;;;6.37;100.00
80976;BME280;70437;49.466;11.002;2024-02-28T09:28:47;98560.56;;;6.59;100.00
80976;BME280;70437;49.466;11.002;2024-02-28T09:31:18;98560.66;;;6.30;100.00
80976;BME280;70437;49.466;11.002;2024-02-28T09:33:48;98567.94;;;6.43;100.00
80976;BME280;70437;49.466;11.002;2024-02-28T09:36:24;98567.69;;;6.38;100.00
80976;BME280;70437;49.466;11.002;2024-02-28T09:38:54;98561.38;;;6.39;100.00
80976;BME280;70437;49.466;11.002;2024-02-28T09:41:27;98568.97;;;6.42;100.00
80976;BME280;70437;49.466;11.002;2024-02-28T09:44:00;98572.47;;;6.27;100.00
80976;BME280;70437;49.466;11.002;2024-02-28T09:46:31;98567.50;;;6.39;100.00
80976;BME280;70437;49.466;11.002;2024-02-28T09:49:06;98561.66;;;6.65;100.00
80976;BME280;70437;49.466;11.002;2024-02-28T09:51:36;98561.16;;;6.76;100.00
80976;BME280;70437;49.466;11.002;2024-02-28T09:54:06;98561.44;;;6.45;100.00
80976;BME280;70437;49.466;11.002;2024-02-28T09:56:40;98570.19;;;6.61;100.00
80976;BME280;70437;49.466;11.002;2024-02-28T09:59:15;98565.22;;;6.72;100.00
80976;BME280;70437;49.466;11.002;2024-02-28T10:01:51;98575.88;;;6.72;100.00
80976;BME280;70437;49.466;11.002;2024-02-28T10:04:25;98577.25;;;6.68;100.00
80976;BME280;70437;49.466;11.002;2024-02-28T10:06:55;98573.88;;;6.59;100.00
80976;BME280;70437;49.466;11.002;2024-02-28T10:09:25;98573.03;;;6.95;100.00
80976;BME280;70437;49.466;11.002;2024-02-28T10:11:57;98571.53;;;7.07;100.00
80976;BME280;70437;49.466;11.002;2024-02-28T10:14:32;98575.13;;;7.21;100.00
80976;BME280;70437;49.466;11.002;2024-02-28T10:17:05;98571.31;;;7.09;100.00
80976;BME280;70437;49.466;11.002;2024-02-28T10:19:36;98570.25;;;7.03;100.00
80976;BME280;70437;49.466;11.002;2024-02-28T10:22:07;98584.31;;;7.19;100.00
80976;BME280;70437;49.466;11.002;2024-02-28T10:24:39;98585.91;;;6.92;100.00
80976;BME280;70437;49.466;11.002;2024-02-28T10:27:09;98586.88;;;6.69;100.00
80976;BME280;70437;49.466;11.002;2024-02-28T10:29:40;98590.81;;;6.88;100.00
80976;BME280;70437;49.466;11.002;2024-02-28T10:32:12;98582.25;;;6.93;100.00
80976;BME280;70437;49.466;11.002;2024-02-28T10:34:42;98588.13;;;7.09;100.00
80976;BME280;70437;49.466;11.002;2024-02-28T10:37:13;98595.81;;;6.98;100.00
80976;BME280;70437;49.466;11.002;2024-02-28T10:39:43;98590.16;;;6.86;100.00
80976;BME280;70437;49.466;11.002;2024-02-28T10:42:12;98584.75;;;7.01;100.00
80976;BME280;70437;49.466;11.002;2024-02-28T10:44:57;98600.63;;;7.09;100.00
80976;BME280;70437;49.466;11.002;2024-02-28T10:47:50;98589.84;;;7.17;100.00
80976;BME280;70437;49.466;11.002;2024-02-28T10:50:21;98590.63;;;7.32;100.00
80976;BME280;70437;49.466;11.002;2024-02-28T10:52:54;98595.84;;;7.19;100.00
80976;BME280;70437;49.466;11.002;2024-02-28T10:55:41;98594.53;;;7.37;100.00
80976;BME280;70437;49.466;11.002;2024-02-28T10:58:14;98595.88;;;7.26;100.00
80976;BME280;70437;49.466;11.002;2024-02-28T11:00:50;98610.31;;;7.10;100.00
80976;BME280;70437;49.466;11.002;2024-02-28T11:03:21;98607.34;;;7.05;100.00
80976;BME280;70437;49.466;11.002;2024-02-28T11:05:58;98604.88;;;7.03;100.00
80976;BME280;70437;49.466;11.002;2024-02-28T11:08:33;98608.63;;;7.09;100.00
80976;BME280;70437;49.466;11.002;2024-02-28T11:11:07;98609.81;;;6.85;100.00
80976;BME280;70437;49.466;11.002;2024-02-28T11:13:54;98618.63;;;6.86;100.00
80976;BME280;70437;49.466;11.002;2024-02-28T11:16:30;98612.44;;;7.00;100.00
80976;BME280;70437;49.466;11.002;2024-02-28T11:19:02;98618.91;;;7.12;100.00
80976;BME280;70437;49.466;11.002;2024-02-28T11:21:36;98626.34;;;7.17;100.00
80976;BME280;70437;49.466;11.002;2024-02-28T11:27:02;98611.44;;;7.22;100.00
80976;BME280;70437;49.466;11.002;2024-02-28T11:29:33;98617.34;;;7.39;100.00
80976;BME280;70437;49.466;11.002;2024-02-28T11:32:05;98618.59;;;7.22;100.00
80976;BME280;70437;49.466;11.002;2024-02-28T11:34:38;98627.16;;;7.17;100.00
80976;BME280;70437;49.466;11.002;2024-02-28T11:37:10;98616.88;;;7.35;100.00
80976;BME280;70437;49.466;11.002;2024-02-28T11:39:46;98620.91;;;7.46;100.00
80976;BME280;70437;49.466;11.002;2024-02-28T11:42:19;98613.06;;;7.45;100.00
80976;BME280;70437;49.466;11.002;2024-02-28T11:44:57;98619.63;;;7.42;100.00
80976;BME280;70437;49.466;11.002;2024-02-28T11:47:32;98617.97;;;7.41;100.00
80976;BME280;70437;49.466;11.002;2024-02-28T11:50:05;98618.72;;;7.56;100.00
80976;BME280;70437;49.466;11.002;2024-02-28T11:52:40;98617.69;;;7.57;100.00
80976;BME280;70437;49.466;11.002;2024-02-28T11:55:11;98619.88;;;7.47;100.00
80976;BME280;70437;49.466;11.002;2024-02-28T11:57:45;98621.19;;;7.58;100.00
80976;BME280;70437;49.466;11.002;2024-02-28T12:00:20;98625.94;;;7.63;100.00
80976;BME280;70437;49.466;11.002;2024-02-28T12:03:04;98624.25;;;7.83;100.00
80976;BME280;70437;49.466;11.002;2024-02-28T12:05:34;98617.56;;;7.94;100.00
80976;BME280;70437;49.466;11.002;2024-02-28T12:08:07;98627.28;;;7.52;100.00
80976;BME280;70437;49.466;11.002;2024-02-28T12:10:38;98614.41;;;7.55;100.00
80976;BME280;70437;49.466;11.002;2024-02-28T12:13:17;98627.06;;;7.75;100.00
80976;BME280;70437;49.466;11.002;2024-02-28T12:15:46;98624.25;;;7.55;100.00
80976;BME280;70437;49.466;11.002;2024-02-28T12:18:20;98618.97;;;7.62;100.00
80976;BME280;70437;49.466;11.002;2024-02-28T12:20:50;98620.34;;;7.57;100.00
80976;BME280;70437;49.466;11.002;2024-02-28T12:23:20;98622.75;;;7.74;100.00
80976;BME280;70437;49.466;11.002;2024-02-28T12:25:53;98616.25;;;7.83;100.00
80976;BME280;70437;49.466;11.002;2024-02-28T12:28:23;98612.34;;;8.42;100.00
80976;BME280;70437;49.466;11.002;2024-02-28T12:30:52;98603.84;;;8.66;100.00
80976;BME280;70437;49.466;11.002;2024-02-28T12:33:26;98600.56;;;8.77;100.00
80976;BME280;70437;49.466;11.002;2024-02-28T12:35:58;98601.59;;;8.76;100.00
80976;BME280;70437;49.466;11.002;2024-02-28T12:38:36;98602.03;;;8.86;100.00
80976;BME280;70437;49.466;11.002;2024-02-28T12:41:08;98601.84;;;8.95;100.00
80976;BME280;70437;49.466;11.002;2024-02-28T12:43:39;98606.78;;;8.91;100.00
80976;BME280;70437;49.466;11.002;2024-02-28T12:46:12;98608.44;;;9.05;100.00
80976;BME280;70437;49.466;11.002;2024-02-28T12:48:43;98610.47;;;8.90;100.00
80976;BME280;70437;49.466;11.002;2024-02-28T12:51:35;98611.13;;;9.05;100.00
80976;BME280;70437;49.466;11.002;2024-02-28T12:54:05;98610.09;;;8.93;98.46
80976;BME280;70437;49.466;11.002;2024-02-28T12:56:37;98608.44;;;8.99;100.00
80976;BME280;70437;49.466;11.002;2024-02-28T12:59:15;98604.28;;;8.83;100.00
80976;BME280;70437;49.466;11.002;2024-02-28T13:01:46;98605.47;;;8.74;100.00
80976;BME280;70437;49.466;11.002;2024-02-28T13:04:19;98602.84;;;8.39;100.00
80976;BME280;70437;49.466;11.002;2024-02-28T13:06:50;98600.84;;;8.41;100.00
80976;BME280;70437;49.466;11.002;2024-02-28T13:09:20;98608.53;;;8.57;100.00
80976;BME280;70437;49.466;11.002;2024-02-28T13:11:57;98597.59;;;8.52;100.00
80976;BME280;70437;49.466;11.002;2024-02-28T13:14:28;98600.53;;;8.64;100.00
80976;BME280;70437;49.466;11.002;2024-02-28T13:16:59;98602.81;;;8.67;100.00
80976;BME280;70437;49.466;11.002;2024-02-28T13:19:35;98605.97;;;8.43;100.00